Druzhba, Ukraine
Current Conditions -  °F | °C
As of 3:00 AM on Tuesday 21 Oct 2014 (Local Time) from UMGG Reporting Station
Clear Clear  
Wind Chill: 50°   Ceiling: Unl
Heat Index: 50°   Visibility: 6mi
Dew Point: 46°   Wind: 11mph
Humidity: 87%   Direction: 250°WSW
Pressure: 29.56"   Gusts: 18mph
Location:  52.04°N, 33.94°E
Report Text: UMGG 210000Z 25005G08MPS CAVOK 10/08 Q1001 R28/290250 NOSIG
Loading
Personal Weather Stations






























Interactive Weather Map
Tropical Storm Tracking
New forecast layout! Learn more

10-Day Weather Forecast

Advertisements
Track Severe Weather on mobile